createdAt,value
2023-03-22T00:02:16.573Z,60.40
2023-03-22T00:04:44.675Z,60.47
2023-03-22T00:07:12.846Z,60.49
2023-03-22T00:09:41.063Z,60.58
2023-03-22T00:12:09.257Z,60.60
2023-03-22T00:14:37.446Z,60.65
2023-03-22T00:17:05.953Z,60.70
2023-03-22T00:19:34.236Z,60.75
2023-03-22T00:22:03.696Z,60.80
2023-03-22T00:24:32.256Z,60.88
2023-03-22T00:27:01.114Z,60.95
2023-03-22T00:29:29.417Z,60.95
2023-03-22T00:31:58.500Z,61.01
2023-03-22T00:34:32.478Z,61.05
2023-03-22T00:37:01.500Z,61.08
2023-03-22T00:39:30.404Z,61.18
2023-03-22T00:41:58.475Z,61.19
2023-03-22T00:44:27.082Z,61.21
2023-03-22T00:46:55.551Z,61.28
2023-03-22T00:49:23.649Z,61.33
2023-03-22T00:51:51.797Z,61.38
2023-03-22T00:54:19.956Z,61.38
2023-03-22T00:56:49.998Z,61.40
2023-03-22T00:59:18.566Z,61.40
2023-03-22T01:01:47.217Z,61.39
2023-03-22T01:04:18.334Z,61.43
2023-03-22T01:06:47.356Z,61.46
2023-03-22T01:09:15.735Z,61.49
2023-03-22T01:11:45.806Z,61.48
2023-03-22T01:14:16.919Z,61.51
2023-03-22T01:16:45.510Z,61.63
2023-03-22T01:19:13.969Z,61.64
2023-03-22T01:21:42.232Z,61.65
2023-03-22T01:24:10.708Z,61.80
2023-03-22T01:26:39.107Z,61.87
2023-03-22T01:29:07.172Z,61.93
2023-03-22T01:31:35.370Z,62.01
2023-03-22T01:34:04.048Z,62.08
2023-03-22T01:36:33.012Z,62.11
2023-03-22T01:39:01.116Z,62.25
2023-03-22T01:41:34.911Z,62.33
2023-03-22T01:44:13.403Z,62.42
2023-03-22T01:46:43.362Z,62.53
2023-03-22T01:49:24.452Z,62.68
2023-03-22T01:51:55.363Z,62.79
2023-03-22T01:54:50.596Z,62.92
2023-03-22T01:57:29.435Z,63.07
2023-03-22T01:59:58.393Z,63.23
2023-03-22T02:02:44.050Z,63.43
2023-03-22T02:05:22.526Z,63.56
2023-03-22T02:07:53.149Z,63.82
2023-03-22T02:10:26.422Z,63.88
2023-03-22T02:13:24.487Z,64.01
2023-03-22T02:16:16.311Z,64.15
2023-03-22T02:19:19.600Z,64.23
2023-03-22T02:22:16.610Z,64.27
2023-03-22T02:25:09.822Z,64.23
2023-03-22T02:28:15.157Z,64.27
2023-03-22T02:31:00.205Z,64.29
2023-03-22T02:33:57.479Z,64.26
2023-03-22T02:36:59.710Z,64.26
2023-03-22T02:39:31.807Z,64.29
2023-03-22T02:42:08.991Z,64.26
2023-03-22T02:44:46.909Z,64.34
2023-03-22T02:47:39.900Z,64.31
2023-03-22T02:50:14.405Z,64.32
2023-03-22T02:52:54.085Z,64.37
2023-03-22T02:55:59.465Z,64.35
2023-03-22T02:58:33.722Z,64.40
2023-03-22T03:01:07.383Z,64.49
2023-03-22T03:03:38.067Z,64.48
2023-03-22T03:06:13.658Z,64.63
2023-03-22T03:08:43.597Z,64.60
2023-03-22T03:11:12.556Z,64.82
2023-03-22T03:13:40.703Z,65.01
2023-03-22T03:16:17.594Z,65.11
2023-03-22T03:19:07.961Z,65.42
2023-03-22T03:21:58.868Z,65.68
2023-03-22T03:24:33.546Z,65.83
2023-03-22T03:27:14.673Z,65.89
2023-03-22T03:29:51.488Z,66.04
2023-03-22T03:32:26.902Z,66.31
2023-03-22T03:35:18.097Z,66.77
2023-03-22T03:38:01.690Z,66.91
2023-03-22T03:40:37.831Z,67.14
2023-03-22T03:43:07.194Z,67.46
2023-03-22T03:45:37.532Z,67.71
2023-03-22T03:48:12.025Z,67.76
2023-03-22T03:50:40.556Z,67.92
2023-03-22T03:53:10.081Z,68.40
2023-03-22T03:55:38.194Z,68.49
2023-03-22T03:58:09.123Z,68.46
2023-03-22T04:00:38.727Z,68.69
2023-03-22T04:03:30.385Z,68.89
2023-03-22T04:06:04.740Z,69.13
2023-03-22T04:08:36.269Z,69.14
2023-03-22T04:11:05.206Z,69.18
2023-03-22T04:13:33.877Z,69.36
2023-03-22T04:16:04.288Z,69.57
2023-03-22T04:18:35.316Z,69.86
2023-03-22T04:21:05.805Z,70.05
2023-03-22T04:23:41.146Z,70.28
2023-03-22T04:26:09.454Z,70.47
2023-03-22T04:28:46.003Z,70.60
2023-03-22T04:31:14.128Z,70.61
2023-03-22T04:33:54.947Z,70.75
2023-03-22T04:36:45.268Z,70.82
2023-03-22T04:39:22.081Z,71.01
2023-03-22T04:41:58.697Z,70.85
2023-03-22T04:44:27.780Z,71.17
2023-03-22T04:46:56.003Z,71.28
2023-03-22T04:49:24.199Z,71.29
2023-03-22T04:51:53.090Z,71.39
2023-03-22T04:54:27.667Z,71.40
2023-03-22T04:56:56.593Z,71.51
2023-03-22T04:59:25.244Z,71.58
2023-03-22T05:01:53.614Z,71.66
2023-03-22T05:04:27.334Z,71.80
2023-03-22T05:07:01.779Z,71.84
2023-03-22T05:09:38.172Z,71.94
2023-03-22T05:12:06.983Z,71.97
2023-03-22T05:14:42.780Z,71.82
2023-03-22T05:17:12.020Z,71.85
2023-03-22T05:19:40.802Z,71.83
2023-03-22T05:22:08.873Z,71.81
2023-03-22T05:24:43.052Z,72.11
2023-03-22T05:27:15.595Z,72.20
2023-03-22T05:29:46.904Z,72.43
2023-03-22T05:32:25.712Z,72.37
2023-03-22T05:34:56.334Z,72.44
2023-03-22T05:37:32.825Z,72.50
2023-03-22T05:40:01.880Z,72.55
2023-03-22T05:42:37.586Z,72.47
2023-03-22T05:45:14.696Z,72.41
2023-03-22T05:47:43.921Z,72.53
2023-03-22T05:50:18.176Z,72.53
2023-03-22T05:52:46.852Z,72.55
2023-03-22T05:55:23.337Z,72.50
2023-03-22T05:57:56.824Z,72.53
2023-03-22T06:00:25.864Z,72.58
2023-03-22T06:03:26.510Z,72.67
2023-03-22T06:06:10.834Z,72.71
2023-03-22T06:08:47.616Z,72.74
2023-03-22T06:11:15.707Z,72.72
2023-03-22T06:13:43.801Z,72.66
2023-03-22T06:16:12.272Z,72.67
2023-03-22T06:18:41.037Z,72.60
2023-03-22T06:21:12.102Z,72.59
2023-03-22T06:23:40.317Z,72.47
2023-03-22T06:26:11.543Z,72.45
2023-03-22T06:28:41.395Z,72.42
2023-03-22T06:31:10.856Z,72.40
2023-03-22T06:33:45.715Z,72.37
2023-03-22T06:36:49.215Z,72.43
2023-03-22T06:39:25.550Z,72.45
2023-03-22T06:41:54.428Z,72.41
2023-03-22T06:44:22.844Z,72.43
2023-03-22T06:46:54.177Z,72.40
2023-03-22T06:49:42.592Z,72.41
2023-03-22T06:52:15.483Z,72.43
2023-03-22T06:54:43.956Z,72.40
2023-03-22T06:57:12.309Z,72.39
2023-03-22T06:59:40.438Z,72.36
2023-03-22T07:02:11.974Z,72.29
2023-03-22T07:04:42.811Z,72.36
2023-03-22T07:07:11.645Z,72.39
2023-03-22T07:09:40.393Z,72.34
2023-03-22T07:12:09.970Z,72.38
2023-03-22T07:14:38.669Z,72.22
2023-03-22T07:17:25.385Z,72.22
2023-03-22T07:19:54.030Z,72.12
2023-03-22T07:22:24.932Z,72.06
2023-03-22T07:24:57.742Z,72.05
2023-03-22T07:27:27.574Z,71.89
2023-03-22T07:29:56.328Z,71.90
2023-03-22T07:32:24.570Z,71.90
2023-03-22T07:35:07.860Z,71.90
2023-03-22T07:37:36.296Z,71.75
2023-03-22T07:40:07.039Z,71.66
2023-03-22T07:42:35.600Z,71.50
2023-03-22T07:45:22.828Z,71.32
2023-03-22T07:48:12.013Z,71.09
2023-03-22T07:50:56.544Z,71.13
2023-03-22T07:53:25.907Z,71.04
2023-03-22T07:55:54.296Z,70.99
2023-03-22T07:58:22.578Z,70.79
2023-03-22T08:00:50.799Z,70.66
2023-03-22T08:03:37.867Z,70.63
2023-03-22T08:06:16.525Z,70.63
2023-03-22T08:08:44.688Z,70.63
2023-03-22T08:11:12.855Z,70.52
2023-03-22T08:13:41.213Z,70.45
2023-03-22T08:16:12.706Z,70.60
2023-03-22T08:18:43.027Z,70.75
2023-03-22T08:21:12.780Z,70.49
2023-03-22T08:23:42.518Z,70.36
2023-03-22T08:26:33.472Z,70.23
2023-03-22T08:29:09.704Z,70.18
2023-03-22T08:31:38.405Z,70.06
2023-03-22T08:34:06.601Z,69.94
2023-03-22T08:36:34.850Z,69.91
2023-03-22T08:39:05.501Z,69.89
2023-03-22T08:41:41.506Z,69.83
2023-03-22T08:44:10.239Z,69.68
2023-03-22T08:46:38.552Z,69.54
2023-03-22T08:49:07.400Z,69.35
2023-03-22T08:51:48.360Z,69.15
2023-03-22T08:54:19.704Z,68.94
2023-03-22T08:56:54.626Z,68.79
2023-03-22T08:59:52.360Z,68.79
2023-03-22T09:02:28.203Z,68.73
2023-03-22T09:04:56.890Z,68.35
2023-03-22T09:07:25.432Z,67.91
2023-03-22T09:10:20.013Z,67.78
2023-03-22T09:12:49.687Z,68.02
2023-03-22T09:15:18.050Z,68.10
2023-03-22T09:17:48.912Z,67.92
2023-03-22T09:20:17.366Z,67.45
2023-03-22T09:22:47.442Z,67.54
2023-03-22T09:25:20.802Z,67.54
2023-03-22T09:27:49.845Z,67.14
2023-03-22T09:30:18.004Z,66.89
2023-03-22T09:32:46.181Z,67.12
2023-03-22T09:35:16.515Z,66.90
2023-03-22T09:37:59.020Z,66.39
2023-03-22T09:40:31.478Z,66.32
2023-03-22T09:43:04.779Z,66.08
2023-03-22T09:45:43.041Z,65.87
2023-03-22T09:48:16.908Z,66.11
2023-03-22T09:50:48.717Z,65.94
2023-03-22T09:53:18.675Z,65.77
2023-03-22T09:55:55.873Z,65.50
2023-03-22T09:58:23.928Z,65.17
2023-03-22T10:00:56.941Z,64.52
2023-03-22T10:03:45.751Z,64.31
2023-03-22T10:06:23.027Z,64.43
2023-03-22T10:09:10.120Z,64.35
2023-03-22T10:11:51.656Z,63.84
2023-03-22T10:14:27.175Z,63.48
2023-03-22T10:16:58.262Z,62.85
2023-03-22T10:19:33.613Z,63.14
2023-03-22T10:22:04.117Z,63.25
2023-03-22T10:24:35.746Z,62.97
2023-03-22T10:27:04.848Z,62.61
2023-03-22T10:29:38.113Z,61.75
2023-03-22T10:32:16.885Z,61.35
2023-03-22T10:34:46.611Z,60.96
2023-03-22T10:37:22.442Z,60.51
2023-03-22T10:39:56.125Z,60.77
2023-03-22T10:42:27.915Z,60.54
2023-03-22T10:45:13.652Z,60.68
2023-03-22T10:47:48.807Z,60.69
2023-03-22T10:50:39.405Z,60.24
2023-03-22T10:53:43.293Z,60.03
2023-03-22T10:56:13.985Z,60.37
2023-03-22T10:58:42.335Z,60.27
2023-03-22T11:01:13.535Z,59.75
2023-03-22T11:03:44.322Z,59.14
2023-03-22T11:06:13.605Z,59.08
2023-03-22T11:08:47.895Z,59.16
2023-03-22T11:11:36.381Z,59.76
2023-03-22T11:14:16.065Z,60.40
2023-03-22T11:17:02.119Z,60.64
2023-03-22T11:19:37.376Z,60.89
2023-03-22T11:22:25.722Z,61.31
2023-03-22T11:24:56.446Z,61.45
2023-03-22T11:27:28.772Z,61.69
2023-03-22T11:30:08.040Z,61.54
2023-03-22T11:32:38.836Z,61.17
2023-03-22T11:35:15.873Z,61.54
2023-03-22T11:37:46.833Z,62.41
2023-03-22T11:40:18.415Z,62.43
2023-03-22T11:42:47.857Z,61.63
2023-03-22T11:45:31.197Z,60.38
2023-03-22T11:48:07.685Z,59.96
2023-03-22T11:50:38.502Z,59.09
2023-03-22T11:53:12.101Z,58.62
2023-03-22T11:55:42.664Z,59.07
2023-03-22T11:58:26.382Z,59.44
2023-03-22T12:01:01.527Z,59.76
2023-03-22T12:03:39.880Z,59.80
2023-03-22T12:06:22.176Z,60.07
2023-03-22T12:08:56.737Z,60.38
2023-03-22T12:11:34.724Z,60.47
2023-03-22T12:14:05.498Z,60.47
2023-03-22T12:16:45.803Z,60.84
2023-03-22T12:19:23.632Z,60.75
2023-03-22T12:21:52.896Z,60.74
2023-03-22T12:24:31.051Z,60.46
2023-03-22T12:27:10.301Z,60.26
2023-03-22T12:29:54.219Z,60.00
2023-03-22T12:32:28.600Z,59.80
2023-03-22T12:35:09.268Z,60.05
2023-03-22T12:37:48.337Z,59.91
2023-03-22T12:40:32.243Z,59.96
2023-03-22T12:43:25.954Z,60.11
2023-03-22T12:45:59.746Z,60.50
2023-03-22T12:48:28.016Z,60.71
2023-03-22T12:51:06.341Z,60.97
2023-03-22T12:53:43.010Z,61.21
2023-03-22T12:56:26.836Z,61.46
2023-03-22T12:59:01.530Z,61.72
2023-03-22T13:01:39.867Z,61.96
2023-03-22T13:04:31.773Z,62.70
2023-03-22T13:07:20.453Z,63.49
2023-03-22T13:09:50.754Z,62.87
2023-03-22T13:12:18.842Z,62.13
2023-03-22T13:14:53.200Z,61.67
2023-03-22T13:17:24.609Z,61.39
2023-03-22T13:20:21.863Z,61.13
2023-03-22T13:22:50.152Z,61.03
2023-03-22T13:25:19.286Z,60.47
2023-03-22T13:28:21.042Z,60.14
2023-03-22T13:30:58.649Z,60.08
2023-03-22T13:33:28.026Z,59.22
2023-03-22T13:35:59.500Z,58.78
2023-03-22T13:38:30.456Z,59.09
2023-03-22T13:41:04.725Z,59.96
2023-03-22T13:43:39.038Z,60.19
2023-03-22T13:46:22.210Z,60.96
2023-03-22T13:48:53.221Z,61.56
2023-03-22T13:51:29.790Z,62.44
2023-03-22T13:54:18.120Z,63.13
2023-03-22T13:57:01.509Z,63.08
2023-03-22T14:00:09.571Z,62.63
2023-03-22T14:02:42.242Z,61.85
2023-03-22T14:05:18.902Z,61.44
2023-03-22T14:07:52.303Z,60.87
2023-03-22T14:10:22.704Z,60.42
2023-03-22T14:12:55.777Z,60.20
2023-03-22T14:15:28.860Z,60.15
2023-03-22T14:17:57.062Z,59.11
2023-03-22T14:20:27.129Z,58.68
